sensor_id;sensor_type;location;lat;lon;timestamp;temperature;humidity
4002;DHT22;2015;48.670;9.060;2023-02-28T00:01:37;-1.60;99.90
4002;DHT22;2015;48.670;9.060;2023-02-28T00:04:09;-1.60;99.90
4002;DHT22;2015;48.670;9.060;2023-02-28T00:06:41;-1.60;99.90
4002;DHT22;2015;48.670;9.060;2023-02-28T00:09:13;-1.60;99.90
4002;DHT22;2015;48.670;9.060;2023-02-28T00:11:45;-1.70;99.90
4002;DHT22;2015;48.670;9.060;2023-02-28T00:14:16;-1.70;99.90
4002;DHT22;2015;48.670;9.060;2023-02-28T00:16:48;-1.70;99.90
4002;DHT22;2015;48.670;9.060;2023-02-28T00:19:20;-1.70;99.90
4002;DHT22;2015;48.670;9.060;2023-02-28T00:21:52;-1.80;99.90
4002;DHT22;2015;48.670;9.060;2023-02-28T00:24:23;-1.80;99.90
4002;DHT22;2015;48.670;9.060;2023-02-28T00:26:55;-1.80;99.90
4002;DHT22;2015;48.670;9.060;2023-02-28T00:29:27;-1.80;99.90
4002;DHT22;2015;48.670;9.060;2023-02-28T00:31:58;-1.80;99.90
4002;DHT22;2015;48.670;9.060;2023-02-28T00:34:30;-1.80;99.90
4002;DHT22;2015;48.670;9.060;2023-02-28T00:37:05;-1.90;99.90
4002;DHT22;2015;48.670;9.060;2023-02-28T00:39:38;-1.90;99.90
4002;DHT22;2015;48.670;9.060;2023-02-28T00:42:10;-1.90;99.90
4002;DHT22;2015;48.670;9.060;2023-02-28T00:44:41;-1.90;99.90
4002;DHT22;2015;48.670;9.060;2023-02-28T00:47:13;-1.90;99.90
4002;DHT22;2015;48.670;9.060;2023-02-28T00:49:45;-1.90;99.90
4002;DHT22;2015;48.670;9.060;2023-02-28T00:52:17;-1.90;99.90
4002;DHT22;2015;48.670;9.060;2023-02-28T00:54:49;-1.90;99.90
4002;DHT22;2015;48.670;9.060;2023-02-28T00:57:21;-2.00;99.90
4002;DHT22;2015;48.670;9.060;2023-02-28T00:59:52;-2.00;99.90
4002;DHT22;2015;48.670;9.060;2023-02-28T01:02:25;-2.00;99.90
4002;DHT22;2015;48.670;9.060;2023-02-28T01:04:57;-2.00;99.90
4002;DHT22;2015;48.670;9.060;2023-02-28T01:07:29;-2.10;99.90
4002;DHT22;2015;48.670;9.060;2023-02-28T01:10:01;-2.10;99.90
4002;DHT22;2015;48.670;9.060;2023-02-28T01:12:32;-2.10;99.90
4002;DHT22;2015;48.670;9.060;2023-02-28T01:15:04;-2.10;99.90
4002;DHT22;2015;48.670;9.060;2023-02-28T01:17:36;-2.10;99.90
4002;DHT22;2015;48.670;9.060;2023-02-28T01:20:09;-2.10;99.90
4002;DHT22;2015;48.670;9.060;2023-02-28T01:22:41;-2.10;99.90
4002;DHT22;2015;48.670;9.060;2023-02-28T01:25:13;-2.20;99.90
4002;DHT22;2015;48.670;9.060;2023-02-28T01:27:44;-2.20;99.90
4002;DHT22;2015;48.670;9.060;2023-02-28T01:30:16;-2.20;99.90
4002;DHT22;2015;48.670;9.060;2023-02-28T01:32:48;-2.20;99.90
4002;DHT22;2015;48.670;9.060;2023-02-28T01:35:21;-2.20;99.90
4002;DHT22;2015;48.670;9.060;2023-02-28T01:37:53;-2.20;99.90
4002;DHT22;2015;48.670;9.060;2023-02-28T01:40:25;-2.30;99.90
4002;DHT22;2015;48.670;9.060;2023-02-28T01:42:56;-2.30;99.90
4002;DHT22;2015;48.670;9.060;2023-02-28T01:45:30;-2.30;99.90
4002;DHT22;2015;48.670;9.060;2023-02-28T01:48:06;-2.30;99.90
4002;DHT22;2015;48.670;9.060;2023-02-28T01:50:41;-2.30;99.90
4002;DHT22;2015;48.670;9.060;2023-02-28T01:53:19;-2.30;99.90
4002;DHT22;2015;48.670;9.060;2023-02-28T01:55:53;-2.30;99.90
4002;DHT22;2015;48.670;9.060;2023-02-28T01:58:25;-2.30;99.90
4002;DHT22;2015;48.670;9.060;2023-02-28T02:00:57;-2.30;99.90
4002;DHT22;2015;48.670;9.060;2023-02-28T02:03:29;-2.30;99.90
4002;DHT22;2015;48.670;9.060;2023-02-28T02:06:02;-2.30;99.90
4002;DHT22;2015;48.670;9.060;2023-02-28T02:08:33;-2.30;99.90
4002;DHT22;2015;48.670;9.060;2023-02-28T02:11:07;-2.30;99.90
4002;DHT22;2015;48.670;9.060;2023-02-28T02:17:05;-2.30;99.90
4002;DHT22;2015;48.670;9.060;2023-02-28T02:26:42;-2.30;99.90
4002;DHT22;2015;48.670;9.060;2023-02-28T02:35:05;-2.30;99.90
4002;DHT22;2015;48.670;9.060;2023-02-28T02:37:50;-2.30;99.90
4002;DHT22;2015;48.670;9.060;2023-02-28T02:40:27;-2.30;99.90
4002;DHT22;2015;48.670;9.060;2023-02-28T02:43:11;-2.30;99.90
4002;DHT22;2015;48.670;9.060;2023-02-28T02:45:49;-2.30;99.90
4002;DHT22;2015;48.670;9.060;2023-02-28T02:48:30;-2.30;99.90
4002;DHT22;2015;48.670;9.060;2023-02-28T02:51:07;-2.30;99.90
4002;DHT22;2015;48.670;9.060;2023-02-28T02:53:57;-2.30;99.90
4002;DHT22;2015;48.670;9.060;2023-02-28T02:56:32;-2.20;99.90
4002;DHT22;2015;48.670;9.060;2023-02-28T02:59:08;-2.20;99.90
4002;DHT22;2015;48.670;9.060;2023-02-28T03:01:41;-2.20;99.90
4002;DHT22;2015;48.670;9.060;2023-02-28T03:04:17;-2.10;99.90
4002;DHT22;2015;48.670;9.060;2023-02-28T03:06:50;-2.10;99.90
4002;DHT22;2015;48.670;9.060;2023-02-28T03:09:26;-2.10;99.90
4002;DHT22;2015;48.670;9.060;2023-02-28T03:11:58;-2.10;99.90
4002;DHT22;2015;48.670;9.060;2023-02-28T03:14:33;-2.10;99.90
4002;DHT22;2015;48.670;9.060;2023-02-28T03:23:23;-2.20;99.90
4002;DHT22;2015;48.670;9.060;2023-02-28T03:26:20;-2.10;99.90
4002;DHT22;2015;48.670;9.060;2023-02-28T03:29:07;-2.10;99.90
4002;DHT22;2015;48.670;9.060;2023-02-28T03:34:39;-2.10;99.90
4002;DHT22;2015;48.670;9.060;2023-02-28T03:37:15;-2.10;99.90
4002;DHT22;2015;48.670;9.060;2023-02-28T03:39:51;-2.10;99.90
4002;DHT22;2015;48.670;9.060;2023-02-28T03:42:28;-2.00;99.90
4002;DHT22;2015;48.670;9.060;2023-02-28T03:45:08;-2.00;99.90
4002;DHT22;2015;48.670;9.060;2023-02-28T03:47:49;-2.00;99.90
4002;DHT22;2015;48.670;9.060;2023-02-28T03:50:55;-2.00;99.90
4002;DHT22;2015;48.670;9.060;2023-02-28T03:53:33;-2.00;99.90
4002;DHT22;2015;48.670;9.060;2023-02-28T03:56:07;-2.00;99.90
4002;DHT22;2015;48.670;9.060;2023-02-28T03:59:01;-2.00;99.90
4002;DHT22;2015;48.670;9.060;2023-02-28T04:01:42;-1.90;99.90
4002;DHT22;2015;48.670;9.060;2023-02-28T04:04:16;-1.90;99.90
4002;DHT22;2015;48.670;9.060;2023-02-28T04:06:50;-1.90;99.90
4002;DHT22;2015;48.670;9.060;2023-02-28T04:09:22;-1.90;99.90
4002;DHT22;2015;48.670;9.060;2023-02-28T04:11:55;-1.90;99.90
4002;DHT22;2015;48.670;9.060;2023-02-28T04:14:29;-1.80;99.90
4002;DHT22;2015;48.670;9.060;2023-02-28T04:17:01;-1.80;99.90
4002;DHT22;2015;48.670;9.060;2023-02-28T04:19:32;-1.80;99.90
4002;DHT22;2015;48.670;9.060;2023-02-28T04:22:04;-1.80;99.90
4002;DHT22;2015;48.670;9.060;2023-02-28T04:24:36;-1.80;99.90
4002;DHT22;2015;48.670;9.060;2023-02-28T04:27:08;-1.80;99.90
4002;DHT22;2015;48.670;9.060;2023-02-28T04:29:40;-1.70;99.90
4002;DHT22;2015;48.670;9.060;2023-02-28T04:32:16;-1.70;99.90
4002;DHT22;2015;48.670;9.060;2023-02-28T04:34:47;-1.70;99.90
4002;DHT22;2015;48.670;9.060;2023-02-28T04:37:20;-1.70;99.90
4002;DHT22;2015;48.670;9.060;2023-02-28T04:39:52;-1.70;99.90
4002;DHT22;2015;48.670;9.060;2023-02-28T04:42:23;-1.80;99.90
4002;DHT22;2015;48.670;9.060;2023-02-28T04:44:55;-1.80;99.90
4002;DHT22;2015;48.670;9.060;2023-02-28T04:47:27;-1.80;99.90
4002;DHT22;2015;48.670;9.060;2023-02-28T04:49:58;-1.70;99.90
4002;DHT22;2015;48.670;9.060;2023-02-28T04:52:30;-1.80;99.90
4002;DHT22;2015;48.670;9.060;2023-02-28T04:55:02;-1.70;99.90
4002;DHT22;2015;48.670;9.060;2023-02-28T04:57:34;-1.70;99.90
4002;DHT22;2015;48.670;9.060;2023-02-28T05:00:06;-1.60;99.90
4002;DHT22;2015;48.670;9.060;2023-02-28T05:02:40;-1.60;99.90
4002;DHT22;2015;48.670;9.060;2023-02-28T05:05:11;-1.60;99.90
4002;DHT22;2015;48.670;9.060;2023-02-28T05:07:49;-1.60;99.90
4002;DHT22;2015;48.670;9.060;2023-02-28T05:10:22;-1.60;99.90
4002;DHT22;2015;48.670;9.060;2023-02-28T05:12:53;-1.60;99.90
4002;DHT22;2015;48.670;9.060;2023-02-28T05:15:25;-1.60;99.90
4002;DHT22;2015;48.670;9.060;2023-02-28T05:17:57;-1.60;99.90
4002;DHT22;2015;48.670;9.060;2023-02-28T05:20:29;-1.60;99.90
4002;DHT22;2015;48.670;9.060;2023-02-28T05:23:01;-1.50;99.90
4002;DHT22;2015;48.670;9.060;2023-02-28T05:25:33;-1.60;99.90
4002;DHT22;2015;48.670;9.060;2023-02-28T05:28:05;-1.60;99.90
4002;DHT22;2015;48.670;9.060;2023-02-28T05:30:37;-1.60;99.90
4002;DHT22;2015;48.670;9.060;2023-02-28T05:33:11;-1.60;99.90
4002;DHT22;2015;48.670;9.060;2023-02-28T05:35:43;-1.60;99.90
4002;DHT22;2015;48.670;9.060;2023-02-28T05:38:15;-1.60;99.90
4002;DHT22;2015;48.670;9.060;2023-02-28T05:40:46;-1.50;99.90
4002;DHT22;2015;48.670;9.060;2023-02-28T05:43:18;-1.50;99.90
4002;DHT22;2015;48.670;9.060;2023-02-28T05:45:50;-1.50;99.90
4002;DHT22;2015;48.670;9.060;2023-02-28T05:48:22;-1.50;99.90
4002;DHT22;2015;48.670;9.060;2023-02-28T05:50:54;-1.60;99.90
4002;DHT22;2015;48.670;9.060;2023-02-28T05:53:26;-1.60;99.90
4002;DHT22;2015;48.670;9.060;2023-02-28T05:55:57;-1.60;99.90
4002;DHT22;2015;48.670;9.060;2023-02-28T05:58:30;-1.70;99.90
4002;DHT22;2015;48.670;9.060;2023-02-28T06:01:30;-1.60;99.90
4002;DHT22;2015;48.670;9.060;2023-02-28T06:04:05;-1.70;99.90
4002;DHT22;2015;48.670;9.060;2023-02-28T06:06:37;-1.70;99.90
4002;DHT22;2015;48.670;9.060;2023-02-28T06:09:08;-1.70;99.90
4002;DHT22;2015;48.670;9.060;2023-02-28T06:11:41;-1.70;99.90
4002;DHT22;2015;48.670;9.060;2023-02-28T06:14:17;-1.70;99.90
4002;DHT22;2015;48.670;9.060;2023-02-28T06:16:49;-1.70;99.90
4002;DHT22;2015;48.670;9.060;2023-02-28T06:19:21;-1.70;99.90
4002;DHT22;2015;48.670;9.060;2023-02-28T06:21:55;-1.60;99.90
4002;DHT22;2015;48.670;9.060;2023-02-28T06:24:28;-1.60;99.90
4002;DHT22;2015;48.670;9.060;2023-02-28T06:26:59;-1.60;99.90
4002;DHT22;2015;48.670;9.060;2023-02-28T06:29:36;-1.60;99.90
4002;DHT22;2015;48.670;9.060;2023-02-28T06:32:11;-1.60;99.90
4002;DHT22;2015;48.670;9.060;2023-02-28T06:34:43;-1.60;99.90
4002;DHT22;2015;48.670;9.060;2023-02-28T06:37:15;-1.60;99.90
4002;DHT22;2015;48.670;9.060;2023-02-28T06:39:46;-1.60;99.90
4002;DHT22;2015;48.670;9.060;2023-02-28T06:42:18;-1.50;99.90
4002;DHT22;2015;48.670;9.060;2023-02-28T06:44:51;-1.50;99.90
4002;DHT22;2015;48.670;9.060;2023-02-28T06:47:23;-1.50;99.90
4002;DHT22;2015;48.670;9.060;2023-02-28T06:49:55;-1.50;99.90
4002;DHT22;2015;48.670;9.060;2023-02-28T06:52:27;-1.50;99.90
4002;DHT22;2015;48.670;9.060;2023-02-28T06:54:59;-1.40;99.90
4002;DHT22;2015;48.670;9.060;2023-02-28T06:57:34;-1.40;99.90
4002;DHT22;2015;48.670;9.060;2023-02-28T07:00:09;-1.40;99.90
4002;DHT22;2015;48.670;9.060;2023-02-28T07:02:40;-1.40;99.90
4002;DHT22;2015;48.670;9.060;2023-02-28T07:05:13;-1.40;99.90
4002;DHT22;2015;48.670;9.060;2023-02-28T07:07:44;-1.40;99.90
4002;DHT22;2015;48.670;9.060;2023-02-28T07:10:18;-1.30;99.90
4002;DHT22;2015;48.670;9.060;2023-02-28T07:12:51;-1.30;99.90
4002;DHT22;2015;48.670;9.060;2023-02-28T07:15:23;-1.30;99.90
4002;DHT22;2015;48.670;9.060;2023-02-28T07:17:54;-1.30;99.90
4002;DHT22;2015;48.670;9.060;2023-02-28T07:20:27;-1.30;99.90
4002;DHT22;2015;48.670;9.060;2023-02-28T07:22:59;-1.30;99.90
4002;DHT22;2015;48.670;9.060;2023-02-28T07:25:31;-1.20;99.90
4002;DHT22;2015;48.670;9.060;2023-02-28T07:28:02;-1.20;99.90
4002;DHT22;2015;48.670;9.060;2023-02-28T07:30:34;-1.20;99.90
4002;DHT22;2015;48.670;9.060;2023-02-28T07:33:06;-1.10;99.90
4002;DHT22;2015;48.670;9.060;2023-02-28T07:35:38;-1.10;99.90
4002;DHT22;2015;48.670;9.060;2023-02-28T07:38:10;-1.10;99.90
4002;DHT22;2015;48.670;9.060;2023-02-28T07:40:41;-1.00;99.90
4002;DHT22;2015;48.670;9.060;2023-02-28T07:43:13;-1.00;99.90
4002;DHT22;2015;48.670;9.060;2023-02-28T07:45:45;-0.90;99.90
4002;DHT22;2015;48.670;9.060;2023-02-28T07:48:16;-0.90;99.90
4002;DHT22;2015;48.670;9.060;2023-02-28T07:50:58;-0.90;99.90
4002;DHT22;2015;48.670;9.060;2023-02-28T07:53:30;-0.90;99.90
4002;DHT22;2015;48.670;9.060;2023-02-28T07:56:02;-0.90;99.90
4002;DHT22;2015;48.670;9.060;2023-02-28T07:58:34;-0.80;99.90
4002;DHT22;2015;48.670;9.060;2023-02-28T08:01:10;-0.90;99.90
4002;DHT22;2015;48.670;9.060;2023-02-28T08:03:42;-0.90;99.90
4002;DHT22;2015;48.670;9.060;2023-02-28T08:06:24;-0.80;99.90
4002;DHT22;2015;48.670;9.060;2023-02-28T08:08:56;-0.80;99.90
4002;DHT22;2015;48.670;9.060;2023-02-28T08:11:28;-0.70;99.90
4002;DHT22;2015;48.670;9.060;2023-02-28T08:14:00;-0.60;99.90
4002;DHT22;2015;48.670;9.060;2023-02-28T08:16:32;-0.60;99.90
4002;DHT22;2015;48.670;9.060;2023-02-28T08:19:03;-0.60;99.90
4002;DHT22;2015;48.670;9.060;2023-02-28T08:21:35;-0.60;99.90
4002;DHT22;2015;48.670;9.060;2023-02-28T08:24:07;-0.60;99.90
4002;DHT22;2015;48.670;9.060;2023-02-28T08:26:39;-0.60;99.90
4002;DHT22;2015;48.670;9.060;2023-02-28T08:29:11;-0.60;99.90
4002;DHT22;2015;48.670;9.060;2023-02-28T08:31:43;-0.60;99.90
4002;DHT22;2015;48.670;9.060;2023-02-28T08:34:16;-0.50;99.90
4002;DHT22;2015;48.670;9.060;2023-02-28T08:36:48;-0.50;99.90
4002;DHT22;2015;48.670;9.060;2023-02-28T08:39:19;-0.50;99.90
4002;DHT22;2015;48.670;9.060;2023-02-28T08:41:51;-0.50;99.90
4002;DHT22;2015;48.670;9.060;2023-02-28T08:44:37;-0.50;99.90
4002;DHT22;2015;48.670;9.060;2023-02-28T08:47:09;-0.40;99.90
4002;DHT22;2015;48.670;9.060;2023-02-28T08:49:40;-0.30;99.90
4002;DHT22;2015;48.670;9.060;2023-02-28T08:52:12;-0.30;99.90
4002;DHT22;2015;48.670;9.060;2023-02-28T08:54:44;-0.20;99.90
4002;DHT22;2015;48.670;9.060;2023-02-28T08:57:16;-0.30;99.90
4002;DHT22;2015;48.670;9.060;2023-02-28T08:59:48;-0.30;99.90
4002;DHT22;2015;48.670;9.060;2023-02-28T09:02:19;-0.30;99.90
4002;DHT22;2015;48.670;9.060;2023-02-28T09:04:51;-0.20;99.90
4002;DHT22;2015;48.670;9.060;2023-02-28T09:07:23;-0.20;99.90
4002;DHT22;2015;48.670;9.060;2023-02-28T09:09:55;-0.20;99.90
4002;DHT22;2015;48.670;9.060;2023-02-28T09:12:27;-0.10;99.90
4002;DHT22;2015;48.670;9.060;2023-02-28T09:15:04;-0.10;99.90
4002;DHT22;2015;48.670;9.060;2023-02-28T09:17:36;-0.20;99.90
4002;DHT22;2015;48.670;9.060;2023-02-28T09:20:08;-0.20;99.90
4002;DHT22;2015;48.670;9.060;2023-02-28T09:22:40;-0.20;99.90
4002;DHT22;2015;48.670;9.060;2023-02-28T09:25:11;-0.20;99.90
4002;DHT22;2015;48.670;9.060;2023-02-28T09:27:43;0.00;99.90
4002;DHT22;2015;48.670;9.060;2023-02-28T09:30:17;0.10;99.90
4002;DHT22;2015;48.670;9.060;2023-02-28T09:32:49;0.10;99.90
4002;DHT22;2015;48.670;9.060;2023-02-28T09:35:24;0.10;99.90
4002;DHT22;2015;48.670;9.060;2023-02-28T09:37:55;0.20;99.90
4002;DHT22;2015;48.670;9.060;2023-02-28T09:40:27;0.30;99.90
4002;DHT22;2015;48.670;9.060;2023-02-28T09:42:59;0.40;99.90
4002;DHT22;2015;48.670;9.060;2023-02-28T09:45:35;0.40;99.90
4002;DHT22;2015;48.670;9.060;2023-02-28T09:48:32;0.40;99.90
4002;DHT22;2015;48.670;9.060;2023-02-28T09:51:28;0.40;99.90
4002;DHT22;2015;48.670;9.060;2023-02-28T09:54:02;0.40;99.90
4002;DHT22;2015;48.670;9.060;2023-02-28T09:56:39;0.50;99.90
4002;DHT22;2015;48.670;9.060;2023-02-28T10:02:13;0.60;99.90
4002;DHT22;2015;48.670;9.060;2023-02-28T10:04:56;0.60;99.90
4002;DHT22;2015;48.670;9.060;2023-02-28T10:10:28;0.40;99.90
4002;DHT22;2015;48.670;9.060;2023-02-28T10:13:04;0.50;99.90
4002;DHT22;2015;48.670;9.060;2023-02-28T10:15:37;0.50;99.90
4002;DHT22;2015;48.670;9.060;2023-02-28T10:18:13;0.60;99.90
4002;DHT22;2015;48.670;9.060;2023-02-28T10:20:46;0.70;99.90
4002;DHT22;2015;48.670;9.060;2023-02-28T10:23:28;0.80;99.90
4002;DHT22;2015;48.670;9.060;2023-02-28T10:26:20;0.90;99.90
4002;DHT22;2015;48.670;9.060;2023-02-28T10:28:53;1.00;99.90
4002;DHT22;2015;48.670;9.060;2023-02-28T10:31:24;1.00;99.90
4002;DHT22;2015;48.670;9.060;2023-02-28T10:33:57;1.10;99.90
4002;DHT22;2015;48.670;9.060;2023-02-28T10:36:28;1.20;99.90
4002;DHT22;2015;48.670;9.060;2023-02-28T10:39:01;1.40;99.90
4002;DHT22;2015;48.670;9.060;2023-02-28T10:41:32;1.50;99.90
4002;DHT22;2015;48.670;9.060;2023-02-28T10:44:16;1.60;99.90
4002;DHT22;2015;48.670;9.060;2023-02-28T10:46:50;1.50;99.90
4002;DHT22;2015;48.670;9.060;2023-02-28T10:49:27;1.60;99.90
4002;DHT22;2015;48.670;9.060;2023-02-28T10:52:00;1.70;99.90
4002;DHT22;2015;48.670;9.060;2023-02-28T10:54:35;1.70;99.90
4002;DHT22;2015;48.670;9.060;2023-02-28T10:57:22;1.60;99.90
4002;DHT22;2015;48.670;9.060;2023-02-28T11:00:20;1.70;99.90
4002;DHT22;2015;48.670;9.060;2023-02-28T11:02:53;1.80;99.90
4002;DHT22;2015;48.670;9.060;2023-02-28T11:05:30;1.90;99.90
4002;DHT22;2015;48.670;9.060;2023-02-28T11:08:16;2.00;99.90
4002;DHT22;2015;48.670;9.060;2023-02-28T11:10:57;2.20;99.90
4002;DHT22;2015;48.670;9.060;2023-02-28T11:13:35;2.00;99.90
4002;DHT22;2015;48.670;9.060;2023-02-28T11:16:11;1.80;99.90
4002;DHT22;2015;48.670;9.060;2023-02-28T11:18:50;1.80;99.90
4002;DHT22;2015;48.670;9.060;2023-02-28T11:21:34;1.80;99.90
4002;DHT22;2015;48.670;9.060;2023-02-28T11:24:36;1.70;99.90
4002;DHT22;2015;48.670;9.060;2023-02-28T11:30:03;2.00;99.90
4002;DHT22;2015;48.670;9.060;2023-02-28T11:32:35;2.00;99.90
4002;DHT22;2015;48.670;9.060;2023-02-28T11:37:41;2.40;99.90
4002;DHT22;2015;48.670;9.060;2023-02-28T11:40:15;2.40;99.90
4002;DHT22;2015;48.670;9.060;2023-02-28T11:43:09;2.60;99.90
4002;DHT22;2015;48.670;9.060;2023-02-28T11:45:58;2.80;99.90
4002;DHT22;2015;48.670;9.060;2023-02-28T11:48:46;2.50;99.90
4002;DHT22;2015;48.670;9.060;2023-02-28T11:56:48;2.50;99.90
4002;DHT22;2015;48.670;9.060;2023-02-28T11:59:48;2.40;99.90
4002;DHT22;2015;48.670;9.060;2023-02-28T12:02:28;2.40;99.90
4002;DHT22;2015;48.670;9.060;2023-02-28T12:08:42;2.80;99.90
4002;DHT22;2015;48.670;9.060;2023-02-28T12:11:37;3.30;99.90
4002;DHT22;2015;48.670;9.060;2023-02-28T12:14:41;3.60;99.90
4002;DHT22;2015;48.670;9.060;2023-02-28T12:20:49;4.00;99.90
4002;DHT22;2015;48.670;9.060;2023-02-28T12:23:56;3.90;99.90
4002;DHT22;2015;48.670;9.060;2023-02-28T12:26:32;3.70;99.90
4002;DHT22;2015;48.670;9.060;2023-02-28T12:29:20;3.60;99.90
4002;DHT22;2015;48.670;9.060;2023-02-28T12:32:23;3.90;99.90
4002;DHT22;2015;48.670;9.060;2023-02-28T12:35:06;4.30;99.90
4002;DHT22;2015;48.670;9.060;2023-02-28T12:40:29;4.60;99.90
4002;DHT22;2015;48.670;9.060;2023-02-28T12:43:06;4.50;99.90
4002;DHT22;2015;48.670;9.060;2023-02-28T12:46:12;4.60;99.90
4002;DHT22;2015;48.670;9.060;2023-02-28T12:48:56;4.70;99.90
4002;DHT22;2015;48.670;9.060;2023-02-28T12:51:29;4.70;99.90
4002;DHT22;2015;48.670;9.060;2023-02-28T12:57:01;4.70;99.90
4002;DHT22;2015;48.670;9.060;2023-02-28T12:59:50;4.70;99.90
4002;DHT22;2015;48.670;9.060;2023-02-28T13:10:51;4.60;99.90
4002;DHT22;2015;48.670;9.060;2023-02-28T13:13:30;4.50;99.90
4002;DHT22;2015;48.670;9.060;2023-02-28T13:16:08;4.60;99.90
4002;DHT22;2015;48.670;9.060;2023-02-28T13:18:45;4.40;99.90
4002;DHT22;2015;48.670;9.060;2023-02-28T13:21:29;4.20;99.90
4002;DHT22;2015;48.670;9.060;2023-02-28T13:24:03;3.90;99.90
4002;DHT22;2015;48.670;9.060;2023-02-28T13:34:40;3.70;99.90
4002;DHT22;2015;48.670;9.060;2023-02-28T13:42:34;3.80;99.90
4002;DHT22;2015;48.670;9.060;2023-02-28T13:47:45;3.80;99.90
4002;DHT22;2015;48.670;9.060;2023-02-28T13:50:35;3.60;99.90
4002;DHT22;2015;48.670;9.060;2023-02-28T14:01:52;3.50;99.90
4002;DHT22;2015;48.670;9.060;2023-02-28T14:04:49;3.60;99.90
4002;DHT22;2015;48.670;9.060;2023-02-28T14:07:29;3.70;99.90
4002;DHT22;2015;48.670;9.060;2023-02-28T14:10:08;3.70;99.90
4002;DHT22;2015;48.670;9.060;2023-02-28T14:13:00;3.70;99.90
4002;DHT22;2015;48.670;9.060;2023-02-28T14:15:41;3.60;99.90
4002;DHT22;2015;48.670;9.060;2023-02-28T14:27:08;3.80;99.90
4002;DHT22;2015;48.670;9.060;2023-02-28T14:38:20;3.70;99.90
4002;DHT22;2015;48.670;9.060;2023-02-28T14:40:55;3.70;99.90
4002;DHT22;2015;48.670;9.060;2023-02-28T14:43:28;3.60;99.90
4002;DHT22;2015;48.670;9.060;2023-02-28T14:46:03;3.60;99.90
4002;DHT22;2015;48.670;9.060;2023-02-28T14:48:37;3.60;99.90
4002;DHT22;2015;48.670;9.060;2023-02-28T14:51:09;3.70;99.90
4002;DHT22;2015;48.670;9.060;2023-02-28T14:53:41;3.70;99.90
4002;DHT22;2015;48.670;9.060;2023-02-28T14:56:22;3.70;99.90
4002;DHT22;2015;48.670;9.060;2023-02-28T14:58:55;3.70;99.90
4002;DHT22;2015;48.670;9.060;2023-02-28T15:01:27;3.70;99.90
4002;DHT22;2015;48.670;9.060;2023-02-28T15:04:02;3.70;99.90
4002;DHT22;2015;48.670;9.060;2023-02-28T15:06:34;3.70;99.90
4002;DHT22;2015;48.670;9.060;2023-02-28T15:09:08;3.70;99.90
4002;DHT22;2015;48.670;9.060;2023-02-28T15:11:40;3.70;99.90
4002;DHT22;2015;48.670;9.060;2023-02-28T15:14:18;3.70;99.90
4002;DHT22;2015;48.670;9.060;2023-02-28T15:17:01;3.80;99.90
4002;DHT22;2015;48.670;9.060;2023-02-28T15:19:37;3.80;99.90
4002;DHT22;2015;48.670;9.060;2023-02-28T15:22:16;3.80;99.90
4002;DHT22;2015;48.670;9.060;2023-02-28T15:24:52;3.80;99.90
4002;DHT22;2015;48.670;9.060;2023-02-28T15:27:27;3.70;99.90
4002;DHT22;2015;48.670;9.060;2023-02-28T15:30:06;3.70;99.90
4002;DHT22;2015;48.670;9.060;2023-02-28T15:32:39;3.70;99.90
4002;DHT22;2015;48.670;9.060;2023-02-28T15:35:19;3.70;99.90
4002;DHT22;2015;48.670;9.060;2023-02-28T15:37:57;3.70;99.90
4002;DHT22;2015;48.670;9.060;2023-02-28T15:40:51;3.70;99.90
4002;DHT22;2015;48.670;9.060;2023-02-28T15:43:26;3.70;99.90
4002;DHT22;2015;48.670;9.060;2023-02-28T15:46:11;3.60;99.90
4002;DHT22;2015;48.670;9.060;2023-02-28T15:48:55;3.60;99.90
4002;DHT22;2015;48.670;9.060;2023-02-28T15:51:36;3.50;99.90
4002;DHT22;2015;48.670;9.060;2023-02-28T15:54:21;3.50;99.90
4002;DHT22;2015;48.670;9.060;2023-02-28T15:57:05;3.40;99.90
4002;DHT22;2015;48.670;9.060;2023-02-28T16:00:02;3.40;99.90
4002;DHT22;2015;48.670;9.060;2023-02-28T16:02:37;3.40;99.90
4002;DHT22;2015;48.670;9.060;2023-02-28T16:07:42;3.30;99.90
4002;DHT22;2015;48.670;9.060;2023-02-28T16:10:15;3.40;99.90
4002;DHT22;2015;48.670;9.060;2023-02-28T16:12:47;3.30;99.90
4002;DHT22;2015;48.670;9.060;2023-02-28T16:15:21;3.30;99.90
4002;DHT22;2015;48.670;9.060;2023-02-28T16:17:54;3.30;99.90
4002;DHT22;2015;48.670;9.060;2023-02-28T16:20:28;3.30;99.90
4002;DHT22;2015;48.670;9.060;2023-02-28T16:23:00;3.30;99.90
4002;DHT22;2015;48.670;9.060;2023-02-28T16:25:42;3.20;99.90
4002;DHT22;2015;48.670;9.060;2023-02-28T16:28:21;3.20;99.90
4002;DHT22;2015;48.670;9.060;2023-02-28T16:30:54;3.10;99.90
4002;DHT22;2015;48.670;9.060;2023-02-28T16:33:26;3.10;99.90
4002;DHT22;2015;48.670;9.060;2023-02-28T16:35:58;3.00;99.90
4002;DHT22;2015;48.670;9.060;2023-02-28T16:38:30;3.00;99.90
4002;DHT22;2015;48.670;9.060;2023-02-28T16:41:02;2.90;99.90
4002;DHT22;2015;48.670;9.060;2023-02-28T16:43:34;2.90;99.90
4002;DHT22;2015;48.670;9.060;2023-02-28T16:46:10;2.80;99.90
4002;DHT22;2015;48.670;9.060;2023-02-28T16:48:43;2.80;99.90
4002;DHT22;2015;48.670;9.060;2023-02-28T16:51:16;2.70;99.90
4002;DHT22;2015;48.670;9.060;2023-02-28T16:53:47;2.70;99.90
4002;DHT22;2015;48.670;9.060;2023-02-28T16:56:24;2.60;99.90
4002;DHT22;2015;48.670;9.060;2023-02-28T16:58:59;2.60;99.90
4002;DHT22;2015;48.670;9.060;2023-02-28T17:01:32;2.50;99.90
4002;DHT22;2015;48.670;9.060;2023-02-28T17:04:05;2.50;99.90
4002;DHT22;2015;48.670;9.060;2023-02-28T17:06:36;2.40;99.90
4002;DHT22;2015;48.670;9.060;2023-02-28T17:09:15;2.40;99.90
4002;DHT22;2015;48.670;9.060;2023-02-28T17:11:48;2.30;99.90
4002;DHT22;2015;48.670;9.060;2023-02-28T17:14:20;2.30;99.90
4002;DHT22;2015;48.670;9.060;2023-02-28T17:16:52;2.20;99.90
4002;DHT22;2015;48.670;9.060;2023-02-28T17:19:24;2.10;99.90
4002;DHT22;2015;48.670;9.060;2023-02-28T17:21:56;2.10;99.90
4002;DHT22;2015;48.670;9.060;2023-02-28T17:24:28;2.10;99.90
4002;DHT22;2015;48.670;9.060;2023-02-28T17:27:02;2.00;99.90
4002;DHT22;2015;48.670;9.060;2023-02-28T17:29:34;2.00;99.90
4002;DHT22;2015;48.670;9.060;2023-02-28T17:32:05;2.00;99.90
4002;DHT22;2015;48.670;9.060;2023-02-28T17:34:48;1.90;99.90
4002;DHT22;2015;48.670;9.060;2023-02-28T17:37:20;1.90;99.90
4002;DHT22;2015;48.670;9.060;2023-02-28T17:39:52;1.80;99.90
4002;DHT22;2015;48.670;9.060;2023-02-28T17:42:23;1.80;99.90
4002;DHT22;2015;48.670;9.060;2023-02-28T17:44:55;1.70;99.90
4002;DHT22;2015;48.670;9.060;2023-02-28T17:47:27;1.70;99.90
4002;DHT22;2015;48.670;9.060;2023-02-28T17:49:58;1.70;99.90
4002;DHT22;2015;48.670;9.060;2023-02-28T17:52:30;1.60;99.90
4002;DHT22;2015;48.670;9.060;2023-02-28T17:55:09;1.60;99.90
4002;DHT22;2015;48.670;9.060;2023-02-28T17:57:41;1.60;99.90
4002;DHT22;2015;48.670;9.060;2023-02-28T18:00:15;1.60;99.90
4002;DHT22;2015;48.670;9.060;2023-02-28T18:02:47;1.50;99.90
4002;DHT22;2015;48.670;9.060;2023-02-28T18:05:19;1.50;99.90
4002;DHT22;2015;48.670;9.060;2023-02-28T18:07:51;1.50;99.90
4002;DHT22;2015;48.670;9.060;2023-02-28T18:10:23;1.40;99.90
4002;DHT22;2015;48.670;9.060;2023-02-28T18:12:55;1.40;99.90
4002;DHT22;2015;48.670;9.060;2023-02-28T18:15:27;1.40;99.90
4002;DHT22;2015;48.670;9.060;2023-02-28T18:17:59;1.40;99.90
4002;DHT22;2015;48.670;9.060;2023-02-28T18:20:30;1.40;99.90
4002;DHT22;2015;48.670;9.060;2023-02-28T18:23:02;1.40;99.90
4002;DHT22;2015;48.670;9.060;2023-02-28T18:25:34;1.40;99.90
4002;DHT22;2015;48.670;9.060;2023-02-28T18:28:06;1.30;99.90
4002;DHT22;2015;48.670;9.060;2023-02-28T18:30:38;1.30;99.90
4002;DHT22;2015;48.670;9.060;2023-02-28T18:33:10;1.30;99.90
4002;DHT22;2015;48.670;9.060;2023-02-28T18:35:41;1.20;99.90
4002;DHT22;2015;48.670;9.060;2023-02-28T18:38:17;1.20;99.90
4002;DHT22;2015;48.670;9.060;2023-02-28T18:40:56;1.10;99.90
4002;DHT22;2015;48.670;9.060;2023-02-28T18:43:31;1.10;99.90
4002;DHT22;2015;48.670;9.060;2023-02-28T18:46:11;1.10;99.90
4002;DHT22;2015;48.670;9.060;2023-02-28T18:48:44;1.00;99.90
4002;DHT22;2015;48.670;9.060;2023-02-28T18:51:19;1.00;99.90